createdAt,value
2018-05-23T00:00:38.534Z,4.30
2018-05-23T00:03:40.994Z,3.63
2018-05-23T00:06:44.210Z,4.00
2018-05-23T00:09:46.659Z,4.03
2018-05-23T00:12:49.882Z,3.97
2018-05-23T00:15:52.325Z,4.00
2018-05-23T00:18:55.554Z,3.80
2018-05-23T00:21:58.017Z,3.57
2018-05-23T00:25:00.458Z,3.50
2018-05-23T00:28:02.925Z,3.80
2018-05-23T00:31:05.376Z,4.17
2018-05-23T00:34:08.607Z,4.10
2018-05-23T00:37:11.061Z,4.03
2018-05-23T00:40:13.501Z,3.73
2018-05-23T00:43:15.970Z,3.93
2018-05-23T00:46:18.426Z,3.40
2018-05-23T00:49:21.653Z,4.30
2018-05-23T00:52:24.118Z,4.23
2018-05-23T00:55:34.376Z,4.20
2018-05-23T00:58:36.834Z,4.27
2018-05-23T01:01:39.298Z,4.10
2018-05-23T01:04:41.741Z,3.73
2018-05-23T01:07:44.209Z,3.83
2018-05-23T01:10:46.661Z,4.30
2018-05-23T01:13:49.125Z,3.80
2018-05-23T01:16:51.589Z,3.90
2018-05-23T01:19:54.803Z,4.03
2018-05-23T01:22:57.254Z,3.63
2018-05-23T01:25:59.710Z,4.00
2018-05-23T01:29:02.162Z,3.47
2018-05-23T01:32:04.629Z,3.63
2018-05-23T01:35:07.081Z,4.90
2018-05-23T01:38:09.677Z,3.87
2018-05-23T01:41:12.110Z,4.20
2018-05-23T01:44:14.572Z,3.83
2018-05-23T01:47:17.035Z,3.70
2018-05-23T01:50:19.493Z,3.93
2018-05-23T01:53:21.954Z,3.80
2018-05-23T01:56:24.405Z,4.03
2018-05-23T01:59:26.862Z,3.80
2018-05-23T02:02:29.330Z,3.90
2018-05-23T02:05:31.790Z,7.17
2018-05-23T02:08:34.250Z,4.00
2018-05-23T02:11:36.697Z,3.73
2018-05-23T02:14:39.914Z,4.27
2018-05-23T02:17:42.371Z,3.87
2018-05-23T02:20:45.578Z,3.87
2018-05-23T02:23:48.032Z,4.00
2018-05-23T02:26:51.250Z,6.30
2018-05-23T02:29:53.727Z,3.87
2018-05-23T02:32:56.186Z,4.07
2018-05-23T02:35:59.397Z,3.60
2018-05-23T02:39:01.903Z,4.40
2018-05-23T02:42:04.350Z,9.47
2018-05-23T02:45:06.825Z,4.00
2018-05-23T02:48:09.978Z,4.40
2018-05-23T02:51:12.430Z,4.30
2018-05-23T02:54:14.896Z,4.17
2018-05-23T02:57:17.349Z,3.70
2018-05-23T03:00:19.805Z,4.20
2018-05-23T03:03:23.043Z,4.27
2018-05-23T03:06:25.483Z,4.13
2018-05-23T03:09:28.706Z,4.10
2018-05-23T03:12:31.159Z,3.90
2018-05-23T03:15:33.625Z,4.40
2018-05-23T03:18:36.841Z,4.10
2018-05-23T03:21:39.298Z,3.97
2018-05-23T03:24:42.527Z,4.03
2018-05-23T03:27:44.972Z,3.70
2018-05-23T03:30:48.234Z,4.40
2018-05-23T03:33:50.682Z,3.87
2018-05-23T03:36:53.150Z,4.20
2018-05-23T03:39:55.607Z,4.20
2018-05-23T03:42:58.050Z,4.67
2018-05-23T03:46:00.519Z,4.30
2018-05-23T03:49:02.970Z,4.40
2018-05-23T03:52:05.425Z,3.90
2018-05-23T03:55:07.886Z,4.60
2018-05-23T03:58:10.329Z,4.30
2018-05-23T04:01:24.585Z,4.30
2018-05-23T04:04:39.084Z,4.40
2018-05-23T04:07:41.521Z,4.47
2018-05-23T04:10:45.490Z,4.27
2018-05-23T04:13:47.934Z,4.30
2018-05-23T04:16:51.162Z,4.30
2018-05-23T04:19:53.646Z,4.17
2018-05-23T04:22:56.096Z,4.70
2018-05-23T04:25:58.554Z,4.40
2018-05-23T04:29:01.014Z,4.47
2018-05-23T04:32:04.230Z,3.97
2018-05-23T04:35:07.459Z,4.40
2018-05-23T04:38:09.920Z,4.53
2018-05-23T04:41:12.394Z,4.93
2018-05-23T04:44:14.864Z,4.60
2018-05-23T04:47:17.322Z,4.50
2018-05-23T04:50:20.552Z,4.37
2018-05-23T04:53:22.988Z,4.53
2018-05-23T04:56:26.215Z,4.37
2018-05-23T04:59:28.675Z,4.50
2018-05-23T05:02:31.890Z,4.63
2018-05-23T05:05:34.334Z,4.77
2018-05-23T05:08:36.788Z,4.17
2018-05-23T05:11:39.247Z,5.17
2018-05-23T05:14:41.690Z,4.63
2018-05-23T05:17:56.975Z,4.80
2018-05-23T05:20:59.445Z,4.83
2018-05-23T05:24:01.889Z,4.60
2018-05-23T05:27:04.346Z,4.07
2018-05-23T05:30:06.806Z,4.70
2018-05-23T05:33:09.258Z,4.57
2018-05-23T05:36:11.726Z,5.10
2018-05-23T05:39:14.182Z,4.97
2018-05-23T05:42:17.417Z,4.30
2018-05-23T05:45:19.894Z,5.10
2018-05-23T05:48:22.354Z,5.10
2018-05-23T05:51:24.824Z,4.93
2018-05-23T05:54:27.266Z,4.50
2018-05-23T05:57:29.726Z,4.50
2018-05-23T06:00:32.196Z,5.13
2018-05-23T06:03:34.663Z,5.57
2018-05-23T06:06:37.250Z,5.73
2018-05-23T06:09:39.739Z,5.20
2018-05-23T06:12:42.185Z,5.20
2018-05-23T06:15:44.676Z,5.40
2018-05-23T06:18:47.798Z,5.23
2018-05-23T06:21:50.253Z,5.10
2018-05-23T06:24:52.722Z,4.87
2018-05-23T06:27:55.181Z,4.90
2018-05-23T06:30:57.645Z,5.13
2018-05-23T06:34:00.094Z,4.97
2018-05-23T06:37:02.553Z,5.30
2018-05-23T06:40:24.220Z,5.80
2018-05-23T06:43:26.761Z,5.40
2018-05-23T06:46:29.925Z,5.40
2018-05-23T06:49:32.353Z,5.50
2018-05-23T06:52:35.569Z,5.57
2018-05-23T06:55:38.019Z,5.37
2018-05-23T06:58:40.466Z,5.80
2018-05-23T07:01:42.949Z,5.50
2018-05-23T07:04:45.377Z,5.97
2018-05-23T07:07:47.839Z,5.53
2018-05-23T07:10:51.046Z,5.30
2018-05-23T07:13:53.502Z,5.10
2018-05-23T07:16:56.724Z,5.43
2018-05-23T07:19:59.161Z,5.90
2018-05-23T07:23:02.390Z,5.70
2018-05-23T07:26:04.826Z,5.57
2018-05-23T07:29:07.293Z,5.40
2018-05-23T07:32:09.753Z,5.47
2018-05-23T07:35:12.206Z,5.60
2018-05-23T07:38:14.671Z,5.60
2018-05-23T07:41:17.134Z,5.77
2018-05-23T07:44:19.603Z,6.00
2018-05-23T07:47:22.822Z,5.80
2018-05-23T07:50:25.274Z,5.80
2018-05-23T07:53:28.501Z,5.60
2018-05-23T07:56:30.966Z,5.50
2018-05-23T07:59:33.441Z,5.27
2018-05-23T08:02:35.926Z,5.70
2018-05-23T08:05:38.377Z,5.00
2018-05-23T08:08:41.602Z,5.33
2018-05-23T08:11:44.055Z,5.80
2018-05-23T08:14:46.505Z,6.30
2018-05-23T08:17:48.966Z,5.73
2018-05-23T08:20:51.425Z,5.80
2018-05-23T08:23:53.902Z,5.43
2018-05-23T08:26:56.362Z,5.60
2018-05-23T08:29:58.829Z,5.70
2018-05-23T08:33:01.290Z,5.10
2018-05-23T08:36:03.735Z,5.53
2018-05-23T08:39:06.189Z,5.27
2018-05-23T08:42:08.638Z,5.60
2018-05-23T08:45:11.086Z,5.90
2018-05-23T08:48:14.318Z,5.27
2018-05-23T08:51:16.758Z,6.00
2018-05-23T08:54:19.992Z,5.50
2018-05-23T08:57:22.429Z,5.53
2018-05-23T09:00:25.663Z,6.00
2018-05-23T09:03:28.112Z,5.53
2018-05-23T09:06:30.562Z,5.57
2018-05-23T09:09:33.018Z,5.10
2018-05-23T09:12:35.492Z,4.97
2018-05-23T09:15:37.918Z,4.23
2018-05-23T09:18:40.374Z,4.50
2018-05-23T09:21:43.591Z,4.30
2018-05-23T09:24:46.049Z,5.30
2018-05-23T09:28:02.990Z,4.70
2018-05-23T09:31:05.433Z,4.80
2018-05-23T09:34:08.820Z,4.80
2018-05-23T09:37:11.292Z,4.80
2018-05-23T09:40:13.769Z,4.70
2018-05-23T09:43:16.230Z,4.97
2018-05-23T09:46:18.674Z,4.80
2018-05-23T09:49:35.593Z,4.37
2018-05-23T09:52:38.059Z,4.07
2018-05-23T09:55:40.550Z,4.40
2018-05-23T09:58:43.022Z,4.30
2018-05-23T10:01:45.470Z,4.70
2018-05-23T10:04:48.705Z,4.20
2018-05-23T10:07:51.145Z,4.17
2018-05-23T10:10:54.365Z,4.23
2018-05-23T10:13:56.861Z,4.20
2018-05-23T10:16:59.300Z,4.30
2018-05-23T10:20:01.770Z,3.93
2018-05-23T10:23:04.986Z,4.13
2018-05-23T10:26:07.445Z,4.07
2018-05-23T10:29:10.678Z,4.20
2018-05-23T10:32:13.137Z,4.67
2018-05-23T10:35:15.601Z,4.40
2018-05-23T10:38:18.046Z,4.00
2018-05-23T10:41:20.514Z,4.63
2018-05-23T10:44:22.966Z,3.80
2018-05-23T10:47:25.418Z,3.73
2018-05-23T10:50:27.890Z,5.03
2018-05-23T10:53:30.324Z,3.80
2018-05-23T10:56:32.785Z,4.20
2018-05-23T10:59:35.242Z,4.40
2018-05-23T11:02:37.706Z,3.90
2018-05-23T11:05:40.244Z,4.00
2018-05-23T11:08:43.541Z,4.30
2018-05-23T11:11:46.004Z,4.03
2018-05-23T11:14:48.506Z,3.70
2018-05-23T11:17:51.693Z,3.83
2018-05-23T11:20:54.926Z,3.97
2018-05-23T11:23:57.379Z,3.77
2018-05-23T11:27:00.615Z,3.70
2018-05-23T11:30:03.061Z,4.20
2018-05-23T11:33:05.505Z,4.30
2018-05-23T11:36:07.962Z,4.07
2018-05-23T11:39:10.429Z,4.10
2018-05-23T11:42:12.881Z,3.83
2018-05-23T11:45:15.343Z,3.63
2018-05-23T11:48:17.819Z,3.97
2018-05-23T11:51:20.265Z,4.13
2018-05-23T11:54:22.722Z,3.67
2018-05-23T11:57:25.171Z,3.90
2018-05-23T12:00:27.653Z,3.90
2018-05-23T12:03:30.101Z,3.90
2018-05-23T12:06:32.550Z,3.60
2018-05-23T12:09:35.775Z,4.00
2018-05-23T12:12:38.226Z,3.87
2018-05-23T12:15:41.451Z,3.83
2018-05-23T12:18:43.906Z,4.00
2018-05-23T12:21:47.157Z,3.90
2018-05-23T12:24:49.617Z,3.57
2018-05-23T12:27:52.068Z,4.47
2018-05-23T12:30:54.533Z,4.00
2018-05-23T12:33:57.741Z,4.00
2018-05-23T12:37:00.211Z,4.27
2018-05-23T12:40:02.677Z,3.90
2018-05-23T12:43:05.901Z,4.10
2018-05-23T12:46:08.352Z,4.20
2018-05-23T12:49:11.572Z,4.10
2018-05-23T12:52:14.054Z,4.00
2018-05-23T12:55:16.527Z,3.90
2018-05-23T12:58:18.990Z,4.10
2018-05-23T13:01:21.469Z,4.43
2018-05-23T13:04:23.918Z,4.17
2018-05-23T13:07:26.378Z,4.50
2018-05-23T13:10:28.853Z,4.00
2018-05-23T13:13:32.258Z,3.93
2018-05-23T13:16:34.726Z,4.20
2018-05-23T13:19:37.170Z,4.37
2018-05-23T13:22:39.640Z,4.03
2018-05-23T13:25:42.105Z,4.10
2018-05-23T13:28:44.545Z,3.93
2018-05-23T13:31:47.012Z,3.83
2018-05-23T13:34:49.466Z,4.57
2018-05-23T13:37:51.933Z,4.00
2018-05-23T13:40:54.393Z,4.13
2018-05-23T13:43:56.854Z,4.17
2018-05-23T13:47:00.062Z,4.20
2018-05-23T13:50:02.506Z,4.00
2018-05-23T13:53:05.745Z,3.53
2018-05-23T13:56:08.206Z,4.30
2018-05-23T13:59:10.662Z,4.03
2018-05-23T14:02:13.918Z,3.67
2018-05-23T14:05:16.362Z,3.87
2018-05-23T14:08:18.829Z,3.97
2018-05-23T14:11:21.294Z,3.77
2018-05-23T14:14:23.746Z,3.97
2018-05-23T14:17:29.296Z,4.07
2018-05-23T14:20:31.736Z,4.23
2018-05-23T14:23:34.198Z,4.40
2018-05-23T14:26:36.661Z,4.47
2018-05-23T14:29:39.110Z,4.40
2018-05-23T14:32:42.335Z,4.30
2018-05-23T14:35:44.811Z,4.30
2018-05-23T14:38:48.011Z,4.33
2018-05-23T14:41:50.470Z,4.63
2018-05-23T14:44:52.909Z,5.37
2018-05-23T14:47:55.373Z,4.50
2018-05-23T14:50:57.823Z,4.40
2018-05-23T14:54:00.277Z,4.70
2018-05-23T14:57:02.795Z,5.13
2018-05-23T15:00:05.245Z,4.70
2018-05-23T15:03:07.703Z,4.80
2018-05-23T15:06:10.139Z,5.03
2018-05-23T15:09:12.776Z,4.83
2018-05-23T15:12:15.389Z,4.70
2018-05-23T15:15:41.149Z,5.13
2018-05-23T15:18:48.808Z,4.80
2018-05-23T15:21:53.277Z,5.13
2018-05-23T15:25:00.553Z,6.80
2018-05-23T15:28:03.021Z,4.73
2018-05-23T15:31:05.482Z,5.00
2018-05-23T15:34:18.627Z,4.93
2018-05-23T15:37:43.005Z,5.00
2018-05-23T15:40:50.931Z,4.93
2018-05-23T15:44:12.623Z,5.40
2018-05-23T15:47:29.011Z,5.00
2018-05-23T15:50:35.645Z,5.07
2018-05-23T15:53:49.139Z,4.73
2018-05-23T15:57:17.214Z,4.90
2018-05-23T16:00:20.658Z,5.10
2018-05-23T16:03:29.265Z,4.90
2018-05-23T16:06:33.690Z,5.33
2018-05-23T16:09:38.118Z,5.20
2018-05-23T16:12:48.557Z,4.90
2018-05-23T16:15:51.000Z,4.57
2018-05-23T16:18:54.460Z,4.87
2018-05-23T16:21:56.942Z,4.77
2018-05-23T16:25:03.194Z,5.10
2018-05-23T16:28:12.726Z,4.63
2018-05-23T16:31:15.165Z,4.90
2018-05-23T16:34:17.629Z,5.27
2018-05-23T16:37:26.885Z,5.07
2018-05-23T16:40:29.357Z,4.70
2018-05-23T16:43:32.047Z,4.63
2018-05-23T16:46:34.494Z,4.60
2018-05-23T16:49:38.894Z,5.00
2018-05-23T16:52:42.115Z,5.20
2018-05-23T16:55:44.576Z,5.10
2018-05-23T16:58:47.802Z,5.30
2018-05-23T17:01:50.241Z,5.87
2018-05-23T17:05:07.499Z,4.77
2018-05-23T17:08:09.950Z,5.47
2018-05-23T17:11:12.413Z,4.93
2018-05-23T17:14:15.634Z,4.90
2018-05-23T17:17:18.094Z,5.10
2018-05-23T17:20:21.315Z,5.27
2018-05-23T17:23:23.766Z,5.10
2018-05-23T17:26:26.996Z,5.27
2018-05-23T17:29:29.458Z,4.87
2018-05-23T17:32:31.901Z,6.40
2018-05-23T17:35:35.134Z,5.07
2018-05-23T17:38:37.577Z,7.90
2018-05-23T17:41:40.813Z,5.70
2018-05-23T17:44:43.282Z,5.93
2018-05-23T17:47:45.733Z,4.90
2018-05-23T17:50:48.197Z,4.97
2018-05-23T17:53:51.438Z,5.37
2018-05-23T17:56:53.892Z,5.20
2018-05-23T17:59:56.333Z,5.47
2018-05-23T18:02:58.785Z,5.47
2018-05-23T18:06:01.364Z,4.87
2018-05-23T18:09:03.679Z,4.93
2018-05-23T18:12:06.939Z,4.97
2018-05-23T18:15:09.391Z,5.03
2018-05-23T18:18:11.825Z,5.43
2018-05-23T18:21:15.053Z,4.67
2018-05-23T18:24:17.547Z,4.80
2018-05-23T18:27:20.029Z,5.23
2018-05-23T18:30:48.349Z,5.20
2018-05-23T18:33:50.791Z,4.53
2018-05-23T18:36:53.259Z,4.73
2018-05-23T18:39:55.709Z,5.07
2018-05-23T18:42:58.153Z,5.07
2018-05-23T18:46:00.611Z,4.70
2018-05-23T18:49:03.050Z,4.67
2018-05-23T18:52:05.519Z,4.67
2018-05-23T18:55:07.979Z,4.57
2018-05-23T18:58:10.421Z,4.70
2018-05-23T19:01:12.906Z,4.83
2018-05-23T19:04:15.347Z,5.07
2018-05-23T19:07:17.810Z,4.23
2018-05-23T19:10:20.273Z,4.87
2018-05-23T19:13:22.729Z,4.30
2018-05-23T19:16:25.949Z,4.57
2018-05-23T19:19:28.407Z,3.73
2018-05-23T19:22:31.626Z,4.10
2018-05-23T19:25:34.090Z,4.27
2018-05-23T19:28:36.548Z,4.40
2018-05-23T19:31:39.774Z,4.30
2018-05-23T19:34:42.227Z,4.60
2018-05-23T19:37:46.280Z,3.90
2018-05-23T19:40:48.741Z,3.53
2018-05-23T19:43:51.193Z,3.80
2018-05-23T19:46:54.426Z,3.90
2018-05-23T19:49:56.873Z,4.03
2018-05-23T19:52:59.449Z,3.50
2018-05-23T19:56:02.571Z,3.83
2018-05-23T19:59:05.027Z,3.57
2018-05-23T20:02:07.514Z,4.10
2018-05-23T20:05:09.945Z,3.33
2018-05-23T20:08:12.435Z,3.50
2018-05-23T20:11:14.878Z,3.60
2018-05-23T20:14:17.555Z,3.40
2018-05-23T20:17:19.801Z,3.77
2018-05-23T20:20:22.254Z,3.80
2018-05-23T20:23:24.714Z,3.40
2018-05-23T20:26:27.934Z,3.60
2018-05-23T20:29:30.382Z,3.57
2018-05-23T20:32:33.614Z,3.67
2018-05-23T20:35:36.059Z,3.80
2018-05-23T20:38:38.521Z,3.33
2018-05-23T20:41:40.990Z,3.50
2018-05-23T20:44:43.442Z,3.03
2018-05-23T20:47:45.928Z,3.07
2018-05-23T20:50:48.348Z,3.17
2018-05-23T20:53:51.562Z,3.40
2018-05-23T20:56:54.033Z,3.20
2018-05-23T20:59:57.233Z,3.10
2018-05-23T21:02:59.706Z,3.00
2018-05-23T21:06:02.902Z,2.90
2018-05-23T21:09:05.387Z,2.80
2018-05-23T21:12:07.879Z,2.70
2018-05-23T21:15:10.384Z,2.50
2018-05-23T21:18:12.888Z,2.77
2018-05-23T21:21:16.118Z,2.67
2018-05-23T21:24:18.614Z,2.67
2018-05-23T21:27:21.106Z,2.87
2018-05-23T21:30:23.614Z,2.80
2018-05-23T21:33:26.862Z,2.40
2018-05-23T21:36:29.329Z,2.53
2018-05-23T21:39:31.818Z,2.83
2018-05-23T21:42:34.306Z,2.60
2018-05-23T21:45:36.766Z,2.70
2018-05-23T21:48:39.234Z,2.70
2018-05-23T21:51:41.704Z,2.50
2018-05-23T21:54:44.190Z,2.47
2018-05-23T21:57:46.666Z,2.57
2018-05-23T22:00:49.118Z,2.53
2018-05-23T22:03:52.330Z,2.67
2018-05-23T22:06:54.791Z,2.30
2018-05-23T22:09:57.253Z,2.40
2018-05-23T22:13:00.487Z,2.50
2018-05-23T22:16:02.943Z,2.20
2018-05-23T22:19:05.406Z,1.80
2018-05-23T22:22:08.617Z,2.37
2018-05-23T22:25:11.070Z,2.30
2018-05-23T22:28:14.301Z,2.20
2018-05-23T22:31:16.741Z,2.50
2018-05-23T22:34:20.018Z,2.33
2018-05-23T22:37:22.474Z,1.93
2018-05-23T22:40:25.335Z,2.10
2018-05-23T22:43:27.777Z,2.10
2018-05-23T22:46:30.993Z,2.50
2018-05-23T22:49:33.450Z,2.30
2018-05-23T22:52:36.659Z,2.17
2018-05-23T22:55:39.141Z,2.00
2018-05-23T22:58:41.598Z,2.10
2018-05-23T23:01:44.810Z,2.40
2018-05-23T23:04:47.267Z,2.00
2018-05-23T23:07:50.481Z,1.97
2018-05-23T23:10:52.945Z,2.10
2018-05-23T23:13:56.161Z,1.90
2018-05-23T23:16:58.605Z,2.17
2018-05-23T23:20:01.835Z,2.10
2018-05-23T23:23:04.277Z,2.13
2018-05-23T23:26:07.502Z,2.33
2018-05-23T23:29:09.972Z,2.00
2018-05-23T23:32:12.434Z,2.10
2018-05-23T23:35:15.659Z,2.00
2018-05-23T23:38:18.109Z,2.27
2018-05-23T23:41:20.565Z,2.30
2018-05-23T23:44:23.033Z,2.17
2018-05-23T23:47:25.475Z,2.03
2018-05-23T23:50:27.937Z,2.07
2018-05-23T23:53:30.382Z,1.97
2018-05-23T23:56:33.622Z,2.40
2018-05-23T23:59:36.070Z,1.87
